Time;durP1;ratioP1;P1;durP2;ratioP2;P2;SDS_P1;SDS_P2;PMS_P1;PMS_P2;Temp;Humidity;BMP_temperature;BMP_pressure;BME280_temperature;BME280_humidity;BME280_pressure;Samples;Min_cycle;Max_cycle;Signal;HPM_P1;HPM_P2
2022/09/05 00:00:20;;;;;;;5.50;2.73;;;;;;;-143.84;67.78;45089.06;5090933;28;20450;-72
2022/09/05 00:03:03;;;;;;;3.50;2.23;;;;;;;-143.84;68.16;45094.78;5090922;28;20819;-72
2022/09/05 00:05:55;;;;;;;3.93;2.63;;;;;;;-143.84;67.98;45087.16;5090795;28;20447;-72
2022/09/05 00:08:34;;;;;;;3.53;3.17;;;;;;;-143.84;68.12;45110.00;5090931;28;20455;-72
2022/09/05 00:11:08;;;;;;;3.13;2.93;;;;;;;-143.84;67.91;45096.66;5090727;28;20440;-72
2022/09/05 00:13:39;;;;;;;2.93;2.63;;;;;;;-143.84;68.12;45100.47;5090459;28;20439;-72
2022/09/05 00:16:34;;;;;;;2.70;2.50;;;;;;;-143.84;67.72;45102.38;5089921;28;20506;-72
2022/09/05 00:19:11;;;;;;;5.37;2.83;;;;;;;-143.84;67.83;45110.00;5087042;28;20481;-72
2022/09/05 00:21:56;;;;;;;4.47;2.50;;;;;;;-143.84;67.71;45132.84;5089780;28;20432;-72
2022/09/05 00:24:47;;;;;;;5.90;3.00;;;;;;;-143.84;68.01;45098.56;5090108;28;20926;-71
2022/09/05 00:27:23;;;;;;;3.00;2.50;;;;;;;-143.84;67.55;45098.56;5090588;28;20507;-72
2022/09/05 00:30:06;;;;;;;3.03;2.83;;;;;;;-143.84;67.68;45108.09;5090468;28;20446;-72
2022/09/05 00:32:45;;;;;;;3.70;2.40;;;;;;;-143.84;67.65;45119.53;5090485;28;20482;-72
2022/09/05 00:35:37;;;;;;;3.20;2.87;;;;;;;-143.84;67.86;45098.56;5090433;28;20432;-72
2022/09/05 00:38:14;;;;;;;3.60;3.30;;;;;;;-143.84;67.75;45110.00;5090336;28;20440;-72
2022/09/05 00:40:48;;;;;;;4.87;3.20;;;;;;;-143.84;67.74;45102.38;5090454;28;20453;-72
2022/09/05 00:43:21;;;;;;;4.10;2.50;;;;;;;-143.84;67.82;45081.44;5090282;28;20486;-72
2022/09/05 00:45:53;;;;;;;2.97;2.70;;;;;;;-143.84;67.73;45087.16;5090348;28;20439;-72
2022/09/05 00:48:29;;;;;;;3.50;3.20;;;;;;;-143.84;67.65;45092.88;5090005;28;20501;-72
2022/09/05 00:51:11;;;;;;;10.50;2.67;;;;;;;-143.84;67.95;45113.81;5090191;28;20550;-72
2022/09/05 00:53:48;;;;;;;3.43;3.10;;;;;;;-143.84;68.23;45104.28;5089970;28;20983;-72
2022/09/05 00:56:50;;;;;;;2.83;2.63;;;;;;;-143.84;68.20;45108.09;5090138;28;20868;-72
2022/09/05 01:00:00;;;;;;;3.73;3.20;;;;;;;-143.84;68.24;45130.94;5089668;28;20868;-72
2022/09/05 01:02:46;;;;;;;4.50;3.50;;;;;;;-143.84;68.14;45121.44;5084558;28;20467;-72
2022/09/05 01:05:26;;;;;;;3.17;2.97;;;;;;;-143.84;68.22;45090.97;5089972;28;20447;-71
2022/09/05 01:08:16;;;;;;;3.17;2.90;;;;;;;-143.84;68.15;45100.47;5089840;28;20444;-72
2022/09/05 01:10:52;;;;;;;3.70;3.40;;;;;;;-143.84;68.32;45129.03;5089662;28;20443;-72
2022/09/05 01:13:35;;;;;;;5.80;3.13;;;;;;;-143.84;68.09;45119.53;5089695;28;20455;-72
2022/09/05 01:16:09;;;;;;;3.37;3.10;;;;;;;-143.84;68.24;45090.97;5089736;28;21062;-72
2022/09/05 01:18:49;;;;;;;3.80;2.63;;;;;;;-143.84;68.16;45110.00;5089779;28;20995;-72
2022/09/05 01:21:44;;;;;;;6.80;3.03;;;;;;;-143.84;68.10;45117.63;5089622;28;20435;-72
2022/09/05 01:24:56;;;;;;;17.60;3.80;;;;;;;-143.84;68.24;45110.00;5086138;28;20480;-77
2022/09/05 01:27:51;;;;;;;5.40;3.23;;;;;;;-143.84;68.41;45113.81;5054164;28;20448;-76
2022/09/05 01:30:21;;;;;;;6.60;3.13;;;;;;;-143.84;68.44;45111.91;5088692;28;20448;-76
2022/09/05 01:32:58;;;;;;;4.03;2.70;;;;;;;-143.84;68.27;45110.00;5090470;28;21190;-76
2022/09/05 01:35:56;;;;;;;21.17;3.73;;;;;;;-143.84;68.28;45111.91;5090252;28;20493;-76
2022/09/05 01:38:28;;;;;;;3.40;3.10;;;;;;;-143.84;67.98;45119.53;5090191;28;20457;-76
2022/09/05 01:41:06;;;;;;;3.70;3.23;;;;;;;-143.84;68.18;45117.63;5089815;28;20447;-76
2022/09/05 01:43:52;;;;;;;3.47;3.17;;;;;;;-143.84;67.72;45094.78;5090201;28;21049;-76
2022/09/05 01:46:28;;;;;;;4.33;2.60;;;;;;;-143.84;67.87;45100.47;5090273;28;20451;-77
2022/09/05 01:49:02;;;;;;;2.77;2.57;;;;;;;-143.84;67.94;45119.53;5089911;28;20487;-76
2022/09/05 01:51:34;;;;;;;4.17;3.40;;;;;;;-143.84;67.89;45094.78;5090283;28;20439;-77
2022/09/05 01:54:17;;;;;;;5.60;2.97;;;;;;;-143.84;68.03;45108.09;5090197;28;20439;-77
2022/09/05 01:56:54;;;;;;;2.97;2.77;;;;;;;-143.84;68.32;45106.19;5090005;28;20452;-76
2022/09/05 01:59:36;;;;;;;5.73;2.67;;;;;;;-143.84;68.20;45104.28;5089547;28;20512;-76
2022/09/05 02:02:18;;;;;;;3.93;2.60;;;;;;;-143.84;68.18;45110.00;5089744;28;21182;-76
2022/09/05 02:05:12;;;;;;;2.90;2.70;;;;;;;-143.84;68.45;45094.78;5089514;28;20857;-76
2022/09/05 02:07:59;;;;;;;3.53;3.20;;;;;;;-143.84;68.52;45110.00;5087789;28;20456;-76
2022/09/05 02:10:51;;;;;;;3.23;3.00;;;;;;;-143.84;68.43;45098.56;5089996;28;20792;-76
2022/09/05 02:13:28;;;;;;;4.03;3.03;;;;;;;-143.84;68.39;45106.19;5089727;28;20444;-76
2022/09/05 02:16:05;;;;;;;4.10;3.20;;;;;;;-143.84;68.58;45123.34;5089983;28;20435;-76
2022/09/05 02:18:47;;;;;;;8.63;2.77;;;;;;;-143.84;68.75;45096.66;5089282;28;20454;-72
2022/09/05 02:21:23;;;;;;;3.40;3.17;;;;;;;-143.84;68.65;45123.34;5089033;28;21330;-72
2022/09/05 02:24:02;;;;;;;5.47;2.87;;;;;;;-143.84;68.74;45121.44;5088663;28;20494;-72
2022/09/05 02:26:36;;;;;;;3.43;3.13;;;;;;;-143.84;68.84;45096.66;5089167;28;20450;-71
2022/09/05 02:29:12;;;;;;;6.93;3.00;;;;;;;-143.84;68.84;45106.19;5089153;28;20890;-71
2022/09/05 02:31:47;;;;;;;3.43;3.13;;;;;;;-143.84;69.20;45113.81;5088462;28;20530;-72
2022/09/05 02:34:24;;;;;;;4.00;3.70;;;;;;;-143.84;69.00;45113.81;5088678;28;20445;-72
2022/09/05 02:37:03;;;;;;;5.70;2.90;;;;;;;-143.84;68.74;45119.53;5088893;28;20447;-72
2022/09/05 02:39:40;;;;;;;6.60;3.00;;;;;;;-143.84;69.15;45210.94;5088590;28;20496;-72
2022/09/05 02:42:19;;;;;;;4.37;3.60;;;;;;;-143.84;69.28;45085.25;5091026;28;20447;-72
2022/09/05 02:45:05;;;;;;;6.60;3.10;;;;;;;-143.84;69.15;45123.34;5092351;28;21106;-72
2022/09/05 02:47:41;;;;;;;12.37;3.20;;;;;;;-143.84;69.16;45111.91;5092453;28;20939;-72
2022/09/05 02:50:28;;;;;;;4.60;3.23;;;;;;;-143.84;69.40;45113.81;5092433;28;20469;-72
2022/09/05 02:52:57;;;;;;;3.47;3.17;;;;;;;-143.84;69.43;45117.63;5092302;28;20531;-71
2022/09/05 02:55:34;;;;;;;7.47;3.60;;;;;;;-143.84;69.55;45108.09;5092274;28;20450;-72
2022/09/05 02:58:21;;;;;;;4.10;3.20;;;;;;;-143.84;69.66;45094.78;5092227;28;20484;-72
2022/09/05 03:01:01;;;;;;;3.10;2.67;;;;;;;-143.84;69.76;45094.78;5092869;28;20447;-72
2022/09/05 03:03:41;;;;;;;3.43;3.17;;;;;;;-143.84;69.79;45117.63;5092112;28;20893;-72
2022/09/05 03:06:18;;;;;;;4.03;3.37;;;;;;;-143.84;69.65;45111.91;5092247;28;20450;-72
2022/09/05 03:09:07;;;;;;;5.80;3.53;;;;;;;-143.84;69.82;45110.00;5092176;28;20511;-72
2022/09/05 03:12:06;;;;;;;3.97;3.23;;;;;;;-143.84;69.87;45104.28;5092027;28;21186;-72
2022/09/05 03:15:20;;;;;;;5.50;3.57;;;;;;;-143.84;70.20;45129.03;5091775;28;20455;-72
2022/09/05 03:18:29;;;;;;;3.03;2.80;;;;;;;-143.84;70.35;45130.94;5092078;28;20447;-72
2022/09/05 03:21:41;;;;;;;4.13;3.60;;;;;;;-143.84;70.41;45092.88;5049427;28;20993;-72
2022/09/05 03:24:56;;;;;;;3.67;3.40;;;;;;;-143.84;70.40;45115.72;5014306;28;20854;-72
2022/09/05 03:28:02;;;;;;;2.80;2.60;;;;;;;-143.84;70.41;45113.81;5028082;28;20442;-72
2022/09/05 03:30:46;;;;;;;5.13;3.40;;;;;;;-143.84;70.45;45125.22;5029045;28;20448;-72
2022/09/05 03:33:38;;;;;;;6.33;3.17;;;;;;;-143.84;70.36;45129.03;5086910;28;20496;-72
2022/09/05 03:36:43;;;;;;;4.33;3.17;;;;;;;-143.84;70.26;45100.47;5091854;28;21017;-72
2022/09/05 03:39:45;;;;;;;5.67;2.70;;;;;;;-143.84;70.20;45134.75;5091683;28;20438;-72
2022/09/05 03:42:21;;;;;;;4.50;2.87;;;;;;;-143.84;69.94;45106.19;5089355;28;20444;-71
2022/09/05 03:45:10;;;;;;;8.83;2.87;;;;;;;-143.84;69.56;45090.97;5089925;28;21282;-72
2022/09/05 03:48:07;;;;;;;5.20;3.07;;;;;;;-143.84;69.39;45106.19;5071374;28;20435;-71
2022/09/05 03:50:37;;;;;;;3.67;2.73;;;;;;;-143.84;68.97;45092.88;5071422;28;20430;-72
2022/09/05 03:53:43;;;;;;;3.20;2.90;;;;;;;-143.84;68.63;45115.72;5071239;28;20439;-70
2022/09/05 03:56:28;;;;;;;4.40;2.93;;;;;;;-143.84;67.72;45121.44;5070895;28;20510;-71
2022/09/05 03:59:31;;;;;;;2.93;2.73;;;;;;;-143.84;66.95;45138.56;5070740;28;20478;-71
2022/09/05 04:02:04;;;;;;;5.63;2.60;;;;;;;-143.84;66.09;45134.75;5070762;28;20504;-71
2022/09/05 04:04:35;;;;;;;2.63;2.43;;;;;;;-143.84;65.83;45121.44;5070713;28;20487;-70
2022/09/05 04:07:07;;;;;;;4.80;3.03;;;;;;;-143.84;65.50;45117.63;5079057;28;20443;-71
2022/09/05 04:09:40;;;;;;;4.47;2.80;;;;;;;-143.84;64.88;45119.53;5111445;28;20496;-72
2022/09/05 04:12:16;;;;;;;7.87;3.37;;;;;;;-143.84;64.20;45119.53;5111087;28;20525;-72
2022/09/05 04:14:50;;;;;;;3.57;2.40;;;;;;;-143.84;63.94;45096.66;5111052;28;20929;-72
2022/09/05 04:17:27;;;;;;;3.57;3.07;;;;;;;-143.84;63.54;45115.72;5111092;28;20441;-72
2022/09/05 04:20:00;;;;;;;3.30;2.60;;;;;;;-143.84;63.04;45098.56;5111381;27;20513;-72
2022/09/05 04:22:42;;;;;;;3.50;2.60;;;;;;;-143.84;63.00;45108.09;5110129;28;20976;-72
2022/09/05 04:25:16;;;;;;;8.80;2.80;;;;;;;-143.84;63.55;45104.28;5109847;28;20491;-72
2022/09/05 04:27:54;;;;;;;4.27;2.70;;;;;;;-143.84;63.91;45092.88;5108256;28;20943;-72
2022/09/05 04:30:40;;;;;;;2.93;2.40;;;;;;;-143.84;63.75;45106.19;5109458;28;20435;-72
2022/09/05 04:33:20;;;;;;;6.53;2.70;;;;;;;-143.84;63.62;45125.22;5109523;28;20431;-72
2022/09/05 04:35:58;;;;;;;3.47;2.90;;;;;;;-143.84;63.41;45129.03;5108821;28;20530;-72
2022/09/05 04:38:38;;;;;;;5.20;2.50;;;;;;;-143.84;63.32;45081.44;5108467;28;20975;-72
2022/09/05 04:41:09;;;;;;;3.23;2.83;;;;;;;-143.84;63.40;45094.78;5108984;28;20469;-72
2022/09/05 04:43:42;;;;;;;4.80;2.30;;;;;;;-143.84;63.13;45087.16;5109080;28;20952;-72
2022/09/05 04:46:18;;;;;;;3.23;2.40;;;;;;;-143.84;62.43;45104.28;5110130;28;20442;-72
2022/09/05 04:48:56;;;;;;;4.30;3.27;;;;;;;-143.84;61.08;45104.28;5110569;28;20495;-72
2022/09/05 04:52:01;;;;;;;6.97;2.70;;;;;;;-143.84;58.46;45106.19;5110680;28;20430;-72
2022/09/05 04:54:35;;;;;;;5.50;2.60;;;;;;;-143.84;57.05;45100.47;5074874;28;20442;-72
2022/09/05 04:57:15;;;;;;;2.07;1.97;;;;;;;-143.84;55.85;45077.63;5110709;27;20468;-72
2022/09/05 04:59:53;;;;;;;4.03;2.70;;;;;;;-143.84;54.12;45094.78;5110223;28;20474;-73
2022/09/05 05:02:26;;;;;;;3.83;2.30;;;;;;;-143.84;52.39;45094.78;5110105;28;20471;-72
2022/09/05 05:05:02;;;;;;;2.70;2.03;;;;;;;-143.84;50.58;45089.06;5109613;28;20483;-72
2022/09/05 05:07:39;;;;;;;6.63;2.47;;;;;;;-143.84;48.00;45066.22;5110353;28;20491;-72
2022/09/05 05:10:11;;;;;;;4.83;1.90;;;;;;;-143.84;46.80;45052.88;5110216;28;20515;-72
2022/09/05 05:12:53;;;;;;;3.93;2.07;;;;;;;-143.84;45.06;45079.53;5110104;28;20821;-72
2022/09/05 05:15:24;;;;;;;2.47;2.27;;;;;;;-143.84;44.83;45037.66;5109988;28;20447;-72
2022/09/05 05:18:02;;;;;;;2.03;1.80;;;;;;;-143.84;43.97;45062.41;5110200;28;20461;-71
2022/09/05 05:20:34;;;;;;;4.17;2.57;;;;;;;-143.84;42.37;45043.34;5109862;28;20477;-72
2022/09/05 05:23:04;;;;;;;5.30;1.70;;;;;;;-143.84;41.74;45037.66;5109927;28;20431;-72
2022/09/05 05:25:35;;;;;;;2.20;2.10;;;;;;;-143.84;41.67;45026.22;5109560;28;20471;-72
2022/09/05 05:28:11;;;;;;;10.20;2.57;;;;;;;-143.84;41.05;45062.41;5109814;28;20869;-72
2022/09/05 05:30:40;;;;;;;12.20;1.90;;;;;;;-143.84;40.76;45031.94;5109896;28;20438;-72
2022/09/05 05:33:17;;;;;;;4.80;2.20;;;;;;;-143.84;40.14;45062.41;5109919;28;20435;-72
2022/09/05 05:35:48;;;;;;;7.80;2.20;;;;;;;-143.84;40.24;45041.44;5109814;28;20434;-72
2022/09/05 05:38:30;;;;;;;7.80;2.60;;;;;;;-143.84;39.23;45016.69;5109428;28;20959;-72
2022/09/05 05:41:06;;;;;;;4.30;2.30;;;;;;;-143.84;39.04;45041.44;5109604;28;20493;-72
2022/09/05 05:43:39;;;;;;;9.90;2.00;;;;;;;-143.84;39.07;45043.34;5109732;28;20438;-72
2022/09/05 05:46:08;;;;;;;2.70;1.80;;;;;;;-143.84;38.42;45026.22;5109681;28;20933;-73
2022/09/05 05:48:38;;;;;;;4.50;2.17;;;;;;;-143.84;37.98;45033.84;5109530;28;20475;-72
2022/09/05 05:51:32;;;;;;;4.57;2.20;;;;;;;-143.84;38.08;45045.25;5109632;28;20515;-72
2022/09/05 05:54:05;;;;;;;5.50;2.03;;;;;;;-143.84;38.31;45022.41;5101119;28;20908;-72
2022/09/05 05:56:48;;;;;;;2.03;1.93;;;;;;;-143.84;37.84;45052.88;5109262;28;20443;-72
2022/09/05 05:59:49;;;;;;;3.40;2.00;;;;;;;-143.84;38.01;45010.97;5109351;28;20478;-71
2022/09/05 06:03:01;;;;;;;1.80;1.70;;;;;;;-143.84;37.67;45035.75;5109366;28;20442;-71
2022/09/05 06:05:43;;;;;;;3.47;2.27;;;;;;;-143.84;37.38;45033.84;5072957;28;20486;-71
2022/09/05 06:08:37;;;;;;;2.30;2.10;;;;;;;-143.84;37.82;45022.41;5109245;28;20443;-71
2022/09/05 06:11:39;;;;;;;3.57;2.07;;;;;;;-143.84;37.34;44999.56;5109359;28;20776;-72
2022/09/05 06:14:49;;;;;;;2.07;1.87;;;;;;;-143.84;37.41;45030.03;5109464;28;20454;-72
2022/09/05 06:17:54;;;;;;;4.27;2.27;;;;;;;-143.84;37.01;45031.94;5113632;28;20944;-72
2022/09/05 06:21:08;;;;;;;3.30;2.13;;;;;;;-143.84;37.52;44999.56;5100076;28;20453;-72
2022/09/05 06:24:07;;;;;;;2.63;2.40;;;;;;;-143.84;37.11;45003.38;5074985;28;20453;-72
2022/09/05 06:26:58;;;;;;;2.03;1.93;;;;;;;-143.84;36.94;45028.13;5073323;28;20858;-73
2022/09/05 06:29:38;;;;;;;5.13;1.70;;;;;;;-143.84;37.13;44988.13;5072426;28;20449;-78
2022/09/05 06:32:23;;;;;;;4.53;2.33;;;;;;;-143.84;37.53;45020.50;5074110;28;20498;-78
2022/09/05 06:35:24;;;;;;;3.20;2.10;;;;;;;-143.84;37.09;45007.19;5076109;28;20535;-78
2022/09/05 06:38:04;;;;;;;10.80;2.10;;;;;;;-143.84;38.03;45003.38;5089696;28;20464;-78
2022/09/05 06:40:40;;;;;;;8.03;2.07;;;;;;;-143.84;37.73;45020.50;5088777;28;20427;-78
2022/09/05 06:43:22;;;;;;;7.10;1.70;;;;;;;-143.84;38.20;45016.69;5095883;28;20435;-78
2022/09/05 06:46:05;;;;;;;5.13;2.13;;;;;;;-143.84;38.09;45022.41;5094309;28;20529;-78
2022/09/05 06:48:42;;;;;;;5.63;1.80;;;;;;;-143.84;38.47;44999.56;5088118;28;20423;-79
2022/09/05 06:51:54;;;;;;;1.97;1.87;;;;;;;-143.84;38.32;45001.47;5094920;28;20447;-78
2022/09/05 06:54:51;;;;;;;2.63;2.33;;;;;;;-143.84;38.56;45010.97;5083210;28;20508;-78
2022/09/05 06:58:02;;;;;;;6.03;2.07;;;;;;;-143.84;39.50;45024.31;5079380;28;20955;-78
2022/09/05 07:00:36;;;;;;;4.90;1.83;;;;;;;-143.84;39.06;45056.69;5090873;28;20443;-78
2022/09/05 07:03:25;;;;;;;6.70;2.00;;;;;;;-143.84;39.57;45030.03;5093848;28;20439;-78
2022/09/05 07:05:56;;;;;;;2.20;2.00;;;;;;;-143.84;38.77;45030.03;5094424;28;20491;-78
2022/09/05 07:08:30;;;;;;;1.83;1.73;;;;;;;-143.84;38.70;45018.59;5093710;28;20939;-78
2022/09/05 07:11:02;;;;;;;4.73;1.90;;;;;;;-143.84;39.11;45026.22;5093177;28;20953;-71
2022/09/05 07:13:37;;;;;;;2.10;2.00;;;;;;;-143.84;39.71;45012.88;5091454;28;20447;-71
2022/09/05 07:16:15;;;;;;;4.10;2.40;;;;;;;-143.84;39.93;45016.69;5094691;28;21221;-72
2022/09/05 07:18:51;;;;;;;2.77;1.73;;;;;;;-143.84;39.86;45012.88;5092052;28;20906;-72
2022/09/05 07:21:24;;;;;;;2.20;1.60;;;;;;;-143.84;39.60;45018.59;5093498;28;20493;-73
2022/09/05 07:23:59;;;;;;;4.40;1.70;;;;;;;-143.84;39.40;45014.78;5091677;28;20440;-71
2022/09/05 07:26:26;;;;;;;2.70;1.50;;;;;;;-143.84;39.69;45009.09;5091342;28;20486;-71
2022/09/05 07:29:02;;;;;;;2.90;1.77;;;;;;;-143.84;38.27;45024.31;5091309;28;20823;-71
2022/09/05 07:31:34;;;;;;;12.23;1.40;;;;;;;-143.84;38.68;45014.78;5091976;28;20933;-71
2022/09/05 07:34:12;;;;;;;3.27;1.80;;;;;;;-143.84;38.75;45009.09;5091690;28;20504;-71
2022/09/05 07:36:45;;;;;;;5.43;1.80;;;;;;;-143.84;38.31;44980.53;5091774;28;20436;-71
2022/09/05 07:39:17;;;;;;;6.13;2.47;;;;;;;-143.84;38.45;44991.94;5091672;28;20458;-71
2022/09/05 07:41:50;;;;;;;1.90;1.80;;;;;;;-143.84;37.89;44988.13;5091553;28;20489;-71
2022/09/05 07:44:23;;;;;;;3.93;1.70;;;;;;;-143.84;36.59;44932.91;5091322;28;20440;-71
2022/09/05 07:46:56;;;;;;;2.40;1.53;;;;;;;-143.84;37.32;44969.09;5091427;28;20448;-71
2022/09/05 07:49:28;;;;;;;16.83;2.83;;;;;;;-143.84;37.59;44986.22;5091405;28;20440;-72
2022/09/05 07:51:57;;;;;;;1.87;1.57;;;;;;;-143.84;37.05;44988.13;5091517;28;20447;-71
2022/09/05 07:54:27;;;;;;;6.63;2.00;;;;;;;-143.84;37.46;44999.56;5091350;28;20440;-71
2022/09/05 07:56:58;;;;;;;9.60;1.80;;;;;;;-143.84;36.76;44980.53;5091257;28;20481;-73
2022/09/05 07:59:28;;;;;;;5.93;2.30;;;;;;;-143.84;37.69;44984.31;5090892;28;20491;-72
2022/09/05 08:01:56;;;;;;;3.90;1.73;;;;;;;-143.84;37.61;44990.03;5091324;28;20542;-70
2022/09/05 08:04:26;;;;;;;10.70;1.73;;;;;;;-143.84;38.32;44976.72;5091178;28;20436;-70
2022/09/05 08:06:56;;;;;;;2.00;1.80;;;;;;;-143.84;37.53;44988.13;5090917;28;20444;-68
2022/09/05 08:09:27;;;;;;;4.00;1.60;;;;;;;-143.84;38.10;44999.56;5092040;28;20480;-70
2022/09/05 08:12:00;;;;;;;1.70;1.40;;;;;;;-143.84;38.89;45012.88;5088691;28;20509;-70
2022/09/05 08:14:41;;;;;;;8.60;1.80;;;;;;;-143.84;38.64;44969.09;5088839;28;20463;-70
2022/09/05 08:17:13;;;;;;;3.20;2.20;;;;;;;-143.84;37.87;44999.56;5089618;28;20452;-70
2022/09/05 08:20:03;;;;;;;3.20;1.80;;;;;;;-143.84;38.72;44991.94;5088661;28;20447;-70
2022/09/05 08:22:33;;;;;;;2.40;1.80;;;;;;;-143.84;39.56;44995.75;5088933;28;20444;-70
2022/09/05 08:25:11;;;;;;;3.03;1.60;;;;;;;-143.84;39.45;44982.41;5089550;28;20471;-71
2022/09/05 08:27:55;;;;;;;5.07;1.97;;;;;;;-143.84;38.71;45016.69;5089809;28;20428;-70
2022/09/05 08:30:24;;;;;;;7.17;1.97;;;;;;;-143.84;38.95;45010.97;5088630;28;20424;-70
2022/09/05 08:32:59;;;;;;;4.17;1.80;;;;;;;-143.84;39.89;44988.13;5089384;28;20456;-70
2022/09/05 08:35:33;;;;;;;2.50;1.50;;;;;;;-143.84;40.01;44991.94;5089655;28;20451;-70
2022/09/05 08:38:01;;;;;;;1.93;1.40;;;;;;;-143.84;37.81;44984.31;5089650;28;20919;-71
2022/09/05 08:40:34;;;;;;;8.83;1.90;;;;;;;-143.84;39.72;44986.22;5088613;28;20467;-71
2022/09/05 08:43:13;;;;;;;2.63;1.90;;;;;;;-143.84;37.25;45003.38;5090518;28;20807;-78
2022/09/05 08:45:46;;;;;;;1.50;1.40;;;;;;;-143.84;36.11;44971.00;5091693;28;20540;-78
2022/09/05 08:48:23;;;;;;;2.17;1.43;;;;;;;-143.84;36.87;44982.41;5091579;28;20444;-78
2022/09/05 08:51:26;;;;;;;6.13;1.73;;;;;;;-143.84;38.54;44955.75;5091682;28;20492;-78
2022/09/05 08:54:21;;;;;;;3.50;1.87;;;;;;;-143.84;38.82;45001.47;5091639;28;20496;-78
2022/09/05 08:56:56;;;;;;;4.90;1.73;;;;;;;-143.84;37.81;44969.09;5077883;28;20444;-78
2022/09/05 08:59:35;;;;;;;2.30;1.70;;;;;;;-143.84;37.43;44976.72;5090025;28;20544;-78
2022/09/05 09:02:47;;;;;;;1.63;1.30;;;;;;;-143.84;37.27;44991.94;5089100;28;20494;-78
2022/09/05 09:05:26;;;;;;;2.10;1.83;;;;;;;-143.84;37.76;44990.03;5053189;28;20524;-78
2022/09/05 09:07:59;;;;;;;7.33;2.80;;;;;;;-143.84;38.12;44982.41;5090302;28;20440;-78
2022/09/05 09:10:36;;;;;;;4.60;2.10;;;;;;;-143.84;38.64;44991.94;5090443;28;20431;-78
2022/09/05 09:13:11;;;;;;;2.40;2.20;;;;;;;-143.84;38.75;44986.22;5090908;28;20492;-78
2022/09/05 09:15:45;;;;;;;2.10;1.90;;;;;;;-143.84;39.26;44993.84;5090964;28;20439;-78
2022/09/05 09:18:17;;;;;;;4.20;2.17;;;;;;;-143.84;39.64;45009.09;5090722;28;20785;-78
2022/09/05 09:20:52;;;;;;;3.30;2.07;;;;;;;-143.84;40.66;45007.19;5089492;28;20501;-78
2022/09/05 09:23:45;;;;;;;3.43;1.77;;;;;;;-143.84;39.32;44984.31;5089161;28;20448;-78
2022/09/05 09:26:15;;;;;;;9.13;2.10;;;;;;;-143.84;39.23;44980.53;5089628;28;20475;-78
2022/09/05 09:28:56;;;;;;;3.00;1.37;;;;;;;-143.84;38.53;45014.78;5089770;28;21004;-78
2022/09/05 09:31:36;;;;;;;3.33;2.00;;;;;;;-143.84;39.20;45007.19;5089629;28;20423;-78
2022/09/05 09:34:31;;;;;;;6.10;1.80;;;;;;;-143.84;39.90;44997.66;5090092;28;20450;-78
2022/09/05 09:37:39;;;;;;;3.57;1.67;;;;;;;-143.84;39.65;45010.97;5088798;28;20531;-78
2022/09/05 09:40:35;;;;;;;1.77;1.67;;;;;;;-143.84;39.06;44972.91;5060663;28;20448;-78
2022/09/05 09:43:09;;;;;;;2.37;1.90;;;;;;;-143.84;38.98;45010.97;5090577;28;20597;-78
2022/09/05 09:45:55;;;;;;;1.77;1.67;;;;;;;-143.84;40.26;44995.75;5090111;28;20475;-78
2022/09/05 09:48:53;;;;;;;4.50;1.97;;;;;;;-143.84;38.61;44978.63;5090530;28;20448;-78
2022/09/05 09:51:41;;;;;;;7.33;1.60;;;;;;;-143.84;39.85;44991.94;5087793;28;20444;-78
2022/09/05 09:54:49;;;;;;;1.83;1.40;;;;;;;-143.84;39.17;45016.69;5090429;28;20443;-78
2022/09/05 09:57:47;;;;;;;3.00;1.53;;;;;;;-143.84;38.67;44988.13;5056508;28;20443;-78
2022/09/05 10:00:21;;;;;;;3.37;1.50;;;;;;;-143.84;38.57;44993.84;5090329;28;20479;-78
2022/09/05 10:03:21;;;;;;;2.23;1.30;;;;;;;-143.84;39.33;44991.94;5090643;28;20498;-79
2022/09/05 10:06:06;;;;;;;5.20;1.27;;;;;;;-143.84;40.16;44986.22;5090550;28;20515;-78
2022/09/05 10:09:00;;;;;;;2.43;1.40;;;;;;;-143.84;40.54;45007.19;5090619;28;20493;-78
2022/09/05 10:11:39;;;;;;;1.37;1.27;;;;;;;-143.84;40.68;44978.63;5090670;28;20448;-78
2022/09/05 10:14:36;;;;;;;3.73;1.27;;;;;;;-143.84;40.96;45016.69;5090749;28;20794;-78
2022/09/05 10:17:30;;;;;;;1.70;1.10;;;;;;;-143.84;41.81;44982.41;5090485;28;20501;-78
2022/09/05 10:20:37;;;;;;;5.00;1.67;;;;;;;-143.84;42.71;45030.03;5090373;28;20493;-78
2022/09/05 10:23:31;;;;;;;6.53;1.40;;;;;;;-143.84;43.43;45009.09;5091135;28;20786;-78
2022/09/05 10:26:28;;;;;;;2.30;1.63;;;;;;;-143.84;44.27;45031.94;5090114;28;20532;-78
2022/09/05 10:29:06;;;;;;;4.07;1.67;;;;;;;-143.84;44.87;45020.50;5090041;28;20540;-78
2022/09/05 10:31:55;;;;;;;2.27;1.40;;;;;;;-143.84;44.90;45022.41;5089870;28;20471;-78
2022/09/05 10:34:25;;;;;;;3.60;2.10;;;;;;;-143.84;46.49;45007.19;5089793;28;20448;-78
2022/09/05 10:36:56;;;;;;;2.33;1.40;;;;;;;-143.84;46.19;45033.84;5089518;28;20859;-78
2022/09/05 10:39:28;;;;;;;1.40;1.30;;;;;;;-143.84;47.36;45026.22;5089504;28;20482;-77
2022/09/05 10:42:00;;;;;;;4.93;1.67;;;;;;;-143.84;47.16;45007.19;5089590;28;20443;-77
2022/09/05 10:44:37;;;;;;;1.97;1.50;;;;;;;-143.84;46.82;45049.06;5089543;28;20436;-78
2022/09/05 10:47:21;;;;;;;1.60;1.50;;;;;;;-143.84;46.70;45012.88;5089242;28;20472;-77
2022/09/05 10:49:50;;;;;;;1.70;1.60;;;;;;;-143.84;46.77;45031.94;5089486;28;20451;-77
2022/09/05 10:52:24;;;;;;;1.07;0.97;;;;;;;-143.84;46.88;45031.94;5089468;28;20439;-78
2022/09/05 10:55:05;;;;;;;2.17;1.40;;;;;;;-143.84;46.78;45037.66;5089172;28;20435;-78
2022/09/05 10:57:41;;;;;;;3.77;1.50;;;;;;;-143.84;46.89;45024.31;5089163;28;20439;-78
2022/09/05 11:00:27;;;;;;;6.37;1.53;;;;;;;-143.84;47.28;45026.22;5089053;28;20854;-77
2022/09/05 11:03:00;;;;;;;2.17;1.47;;;;;;;-143.84;47.64;45033.84;5091138;28;20949;-78
2022/09/05 11:05:30;;;;;;;5.07;1.27;;;;;;;-143.84;47.79;45043.34;5093279;28;20424;-78
2022/09/05 11:08:08;;;;;;;4.23;1.30;;;;;;;-143.84;48.34;45041.44;5093117;28;20432;-77
2022/09/05 11:10:42;;;;;;;6.40;2.03;;;;;;;-143.84;49.36;45031.94;5093186;28;20447;-78
2022/09/05 11:13:22;;;;;;;1.60;1.20;;;;;;;-143.84;49.57;45041.44;5092797;28;20815;-77
2022/09/05 11:16:12;;;;;;;3.10;1.50;;;;;;;-143.84;50.26;45037.66;5092942;28;20443;-77
2022/09/05 11:18:58;;;;;;;4.10;1.37;;;;;;;-143.84;51.04;45031.94;5093273;28;20428;-77
2022/09/05 11:21:38;;;;;;;4.10;1.47;;;;;;;-143.84;49.92;45016.69;5091971;28;21296;-78
2022/09/05 11:24:18;;;;;;;6.80;1.30;;;;;;;-143.84;50.57;45039.53;5092595;28;20444;-77
2022/09/05 11:26:48;;;;;;;6.53;2.30;;;;;;;-143.84;50.39;45022.41;5092936;28;20485;-78
2022/09/05 11:29:22;;;;;;;2.70;1.57;;;;;;;-143.84;49.44;45033.84;5092795;28;20820;-77
2022/09/05 11:32:08;;;;;;;1.30;1.20;;;;;;;-143.84;49.24;45033.84;5092629;28;20527;-77
2022/09/05 11:35:01;;;;;;;1.73;1.43;;;;;;;-143.84;50.44;45016.69;5092530;28;20788;-77
2022/09/05 11:37:53;;;;;;;4.63;1.70;;;;;;;-143.84;49.74;45054.78;5092528;28;20452;-77
2022/09/05 11:40:43;;;;;;;3.73;1.40;;;;;;;-143.84;51.57;45049.06;5089636;28;20463;-77
2022/09/05 11:43:45;;;;;;;3.37;1.80;;;;;;;-143.84;52.44;45037.66;5092268;28;20925;-77
2022/09/05 11:46:35;;;;;;;3.77;1.80;;;;;;;-143.84;51.73;45020.50;5055900;28;20834;-78
2022/09/05 11:49:30;;;;;;;1.50;1.33;;;;;;;-143.84;50.99;45050.97;5092277;28;20436;-78
2022/09/05 11:52:35;;;;;;;4.30;1.40;;;;;;;-143.84;50.88;45045.25;5092128;28;20451;-78
2022/09/05 11:55:31;;;;;;;3.23;1.47;;;;;;;-143.84;51.48;45028.13;5079158;28;21420;-77
2022/09/05 11:58:25;;;;;;;2.27;1.33;;;;;;;-143.84;52.23;45047.16;5091859;28;20440;-77
2022/09/05 12:01:06;;;;;;;3.53;1.80;;;;;;;-143.84;51.62;45012.88;5092020;28;20436;-77
2022/09/05 12:03:44;;;;;;;2.67;2.37;;;;;;;-143.84;51.27;45039.53;5092224;28;20443;-77
2022/09/05 12:06:29;;;;;;;7.43;1.73;;;;;;;-143.84;51.29;45014.78;5092053;28;20533;-77
2022/09/05 12:09:05;;;;;;;4.43;1.40;;;;;;;-143.84;50.89;45035.75;5092403;28;20420;-77
2022/09/05 12:11:50;;;;;;;5.00;1.70;;;;;;;-143.84;51.19;45056.69;5091936;28;20531;-77
2022/09/05 12:14:36;;;;;;;1.70;1.50;;;;;;;-143.84;50.45;45043.34;5092063;28;20497;-77
2022/09/05 12:17:11;;;;;;;3.00;1.60;;;;;;;-143.84;50.25;45010.97;5091920;28;20428;-77
2022/09/05 12:19:43;;;;;;;4.57;1.97;;;;;;;-143.84;50.36;45028.13;5091958;28;20978;-77
2022/09/05 12:22:29;;;;;;;4.17;1.83;;;;;;;-143.84;50.17;45052.88;5091894;28;20461;-77
2022/09/05 12:25:20;;;;;;;3.30;1.57;;;;;;;-143.84;50.38;45022.41;5091960;28;20448;-77